sensor_id;sensor_type;location;lat;lon;timestamp;P1;durP1;ratioP1;P2;durP2;ratioP2
17814;SDS011;9031;50.974;11.330;2023-02-28T00:01:17;6.30;;;5.70;;
17814;SDS011;9031;50.974;11.330;2023-02-28T00:03:42;8.43;;;5.30;;
17814;SDS011;9031;50.974;11.330;2023-02-28T00:06:08;5.63;;;5.13;;
17814;SDS011;9031;50.974;11.330;2023-02-28T00:08:37;5.70;;;5.20;;
17814;SDS011;9031;50.974;11.330;2023-02-28T00:11:04;5.80;;;5.20;;
17814;SDS011;9031;50.974;11.330;2023-02-28T00:13:33;5.90;;;5.40;;
17814;SDS011;9031;50.974;11.330;2023-02-28T00:16:07;5.30;;;4.80;;
17814;SDS011;9031;50.974;11.330;2023-02-28T00:18:34;5.40;;;4.90;;
17814;SDS011;9031;50.974;11.330;2023-02-28T00:21:00;6.07;;;5.47;;
17814;SDS011;9031;50.974;11.330;2023-02-28T00:23:26;5.87;;;5.30;;
17814;SDS011;9031;50.974;11.330;2023-02-28T00:25:52;6.50;;;5.23;;
17814;SDS011;9031;50.974;11.330;2023-02-28T00:28:18;5.33;;;4.83;;
17814;SDS011;9031;50.974;11.330;2023-02-28T00:30:44;5.67;;;5.17;;
17814;SDS011;9031;50.974;11.330;2023-02-28T00:33:09;6.17;;;5.57;;
17814;SDS011;9031;50.974;11.330;2023-02-28T00:35:35;5.80;;;5.30;;
17814;SDS011;9031;50.974;11.330;2023-02-28T00:38:00;6.10;;;5.47;;
17814;SDS011;9031;50.974;11.330;2023-02-28T00:40:27;6.00;;;5.40;;
17814;SDS011;9031;50.974;11.330;2023-02-28T00:42:52;5.70;;;5.03;;
17814;SDS011;9031;50.974;11.330;2023-02-28T00:45:18;5.83;;;5.23;;
17814;SDS011;9031;50.974;11.330;2023-02-28T00:47:44;6.23;;;5.67;;
17814;SDS011;9031;50.974;11.330;2023-02-28T00:50:11;5.73;;;5.23;;
17814;SDS011;9031;50.974;11.330;2023-02-28T00:52:37;6.57;;;5.97;;
17814;SDS011;9031;50.974;11.330;2023-02-28T00:55:02;6.90;;;6.20;;
17814;SDS011;9031;50.974;11.330;2023-02-28T00:57:28;7.80;;;5.87;;
17814;SDS011;9031;50.974;11.330;2023-02-28T00:59:53;6.80;;;6.13;;
17814;SDS011;9031;50.974;11.330;2023-02-28T01:02:19;6.70;;;6.10;;
17814;SDS011;9031;50.974;11.330;2023-02-28T01:04:46;8.27;;;6.97;;
17814;SDS011;9031;50.974;11.330;2023-02-28T01:07:11;6.70;;;6.00;;
17814;SDS011;9031;50.974;11.330;2023-02-28T01:09:37;8.17;;;6.90;;
17814;SDS011;9031;50.974;11.330;2023-02-28T01:12:03;7.13;;;6.03;;
17814;SDS011;9031;50.974;11.330;2023-02-28T01:14:29;7.20;;;6.50;;
17814;SDS011;9031;50.974;11.330;2023-02-28T01:16:54;8.33;;;5.97;;
17814;SDS011;9031;50.974;11.330;2023-02-28T01:19:20;7.77;;;6.80;;
17814;SDS011;9031;50.974;11.330;2023-02-28T01:21:45;6.60;;;6.00;;
17814;SDS011;9031;50.974;11.330;2023-02-28T01:24:11;7.63;;;6.83;;
17814;SDS011;9031;50.974;11.330;2023-02-28T01:26:36;7.23;;;6.57;;
17814;SDS011;9031;50.974;11.330;2023-02-28T01:29:01;7.27;;;6.00;;
17814;SDS011;9031;50.974;11.330;2023-02-28T01:31:27;7.10;;;6.10;;
17814;SDS011;9031;50.974;11.330;2023-02-28T01:33:53;7.40;;;6.80;;
17814;SDS011;9031;50.974;11.330;2023-02-28T01:36:19;7.43;;;6.63;;
17814;SDS011;9031;50.974;11.330;2023-02-28T01:38:46;5.90;;;5.40;;
17814;SDS011;9031;50.974;11.330;2023-02-28T01:41:15;8.23;;;5.50;;
17814;SDS011;9031;50.974;11.330;2023-02-28T01:43:56;6.80;;;5.93;;
17814;SDS011;9031;50.974;11.330;2023-02-28T01:46:31;7.07;;;5.73;;
17814;SDS011;9031;50.974;11.330;2023-02-28T01:49:13;6.53;;;5.93;;
17814;SDS011;9031;50.974;11.330;2023-02-28T01:54:24;7.40;;;6.10;;
17814;SDS011;9031;50.974;11.330;2023-02-28T01:56:57;6.67;;;5.53;;
17814;SDS011;9031;50.974;11.330;2023-02-28T01:59:28;7.10;;;5.63;;
17814;SDS011;9031;50.974;11.330;2023-02-28T02:02:00;6.07;;;5.47;;
17814;SDS011;9031;50.974;11.330;2023-02-28T02:04:27;7.07;;;5.30;;
17814;SDS011;9031;50.974;11.330;2023-02-28T02:07:06;5.97;;;5.37;;
17814;SDS011;9031;50.974;11.330;2023-02-28T02:09:32;5.80;;;5.20;;
17814;SDS011;9031;50.974;11.330;2023-02-28T02:11:58;8.43;;;4.90;;
17814;SDS011;9031;50.974;11.330;2023-02-28T02:15:05;5.63;;;4.73;;
17814;SDS011;9031;50.974;11.330;2023-02-28T02:17:38;5.77;;;4.57;;
17814;SDS011;9031;50.974;11.330;2023-02-28T02:25:52;5.37;;;4.40;;
17814;SDS011;9031;50.974;11.330;2023-02-28T02:36:51;5.77;;;4.27;;
17814;SDS011;9031;50.974;11.330;2023-02-28T02:39:28;5.13;;;4.70;;
17814;SDS011;9031;50.974;11.330;2023-02-28T02:42:01;5.37;;;4.73;;
17814;SDS011;9031;50.974;11.330;2023-02-28T02:44:39;5.10;;;4.60;;
17814;SDS011;9031;50.974;11.330;2023-02-28T02:47:10;4.80;;;4.40;;
17814;SDS011;9031;50.974;11.330;2023-02-28T02:49:40;5.47;;;4.50;;
17814;SDS011;9031;50.974;11.330;2023-02-28T02:52:12;5.17;;;4.67;;
17814;SDS011;9031;50.974;11.330;2023-02-28T02:54:43;4.77;;;4.30;;
17814;SDS011;9031;50.974;11.330;2023-02-28T02:57:12;4.47;;;4.07;;
17814;SDS011;9031;50.974;11.330;2023-02-28T02:59:47;5.83;;;4.47;;
17814;SDS011;9031;50.974;11.330;2023-02-28T03:02:14;4.87;;;4.37;;
17814;SDS011;9031;50.974;11.330;2023-02-28T03:04:57;7.47;;;4.93;;
17814;SDS011;9031;50.974;11.330;2023-02-28T03:07:27;4.90;;;4.47;;
17814;SDS011;9031;50.974;11.330;2023-02-28T03:09:53;5.50;;;5.00;;
17814;SDS011;9031;50.974;11.330;2023-02-28T03:12:20;4.90;;;4.50;;
17814;SDS011;9031;50.974;11.330;2023-02-28T03:14:55;5.27;;;4.87;;
17814;SDS011;9031;50.974;11.330;2023-02-28T03:17:38;5.10;;;4.57;;
17814;SDS011;9031;50.974;11.330;2023-02-28T03:20:37;5.50;;;5.00;;
17814;SDS011;9031;50.974;11.330;2023-02-28T03:26:08;4.80;;;4.40;;
17814;SDS011;9031;50.974;11.330;2023-02-28T03:32:20;5.47;;;4.90;;
17814;SDS011;9031;50.974;11.330;2023-02-28T03:35:07;5.33;;;4.87;;
17814;SDS011;9031;50.974;11.330;2023-02-28T03:37:40;6.30;;;4.50;;
17814;SDS011;9031;50.974;11.330;2023-02-28T03:40:15;5.17;;;4.73;;
17814;SDS011;9031;50.974;11.330;2023-02-28T03:42:46;5.13;;;4.73;;
17814;SDS011;9031;50.974;11.330;2023-02-28T03:47:48;5.20;;;4.70;;
17814;SDS011;9031;50.974;11.330;2023-02-28T03:50:18;7.17;;;4.47;;
17814;SDS011;9031;50.974;11.330;2023-02-28T03:53:00;5.37;;;4.93;;
17814;SDS011;9031;50.974;11.330;2023-02-28T03:55:36;7.23;;;5.47;;
17814;SDS011;9031;50.974;11.330;2023-02-28T03:58:10;5.07;;;4.57;;
17814;SDS011;9031;50.974;11.330;2023-02-28T04:00:56;7.73;;;4.70;;
17814;SDS011;9031;50.974;11.330;2023-02-28T04:03:36;5.27;;;4.77;;
17814;SDS011;9031;50.974;11.330;2023-02-28T04:06:03;5.20;;;4.70;;
17814;SDS011;9031;50.974;11.330;2023-02-28T04:08:30;5.23;;;4.73;;
17814;SDS011;9031;50.974;11.330;2023-02-28T04:10:58;6.17;;;5.13;;
17814;SDS011;9031;50.974;11.330;2023-02-28T04:13:29;5.13;;;4.73;;
17814;SDS011;9031;50.974;11.330;2023-02-28T04:15:55;8.83;;;4.83;;
17814;SDS011;9031;50.974;11.330;2023-02-28T04:18:20;5.47;;;4.47;;
17814;SDS011;9031;50.974;11.330;2023-02-28T04:20:46;5.87;;;4.80;;
17814;SDS011;9031;50.974;11.330;2023-02-28T04:23:11;5.10;;;4.63;;
17814;SDS011;9031;50.974;11.330;2023-02-28T04:25:36;5.20;;;4.80;;
17814;SDS011;9031;50.974;11.330;2023-02-28T04:28:02;4.87;;;4.47;;
17814;SDS011;9031;50.974;11.330;2023-02-28T04:30:28;5.17;;;4.67;;
17814;SDS011;9031;50.974;11.330;2023-02-28T04:32:54;5.10;;;4.70;;
17814;SDS011;9031;50.974;11.330;2023-02-28T04:35:20;6.20;;;4.63;;
17814;SDS011;9031;50.974;11.330;2023-02-28T04:37:45;4.87;;;4.47;;
17814;SDS011;9031;50.974;11.330;2023-02-28T04:40:11;5.27;;;4.77;;
17814;SDS011;9031;50.974;11.330;2023-02-28T04:42:36;4.50;;;4.10;;
17814;SDS011;9031;50.974;11.330;2023-02-28T04:45:03;3.97;;;3.67;;
17814;SDS011;9031;50.974;11.330;2023-02-28T04:47:29;5.07;;;4.57;;
17814;SDS011;9031;50.974;11.330;2023-02-28T04:49:54;5.30;;;4.80;;
17814;SDS011;9031;50.974;11.330;2023-02-28T04:52:20;4.47;;;4.07;;
17814;SDS011;9031;50.974;11.330;2023-02-28T04:54:45;5.40;;;4.90;;
17814;SDS011;9031;50.974;11.330;2023-02-28T04:57:11;5.30;;;4.80;;
17814;SDS011;9031;50.974;11.330;2023-02-28T04:59:36;7.40;;;4.77;;
17814;SDS011;9031;50.974;11.330;2023-02-28T05:02:02;4.90;;;4.40;;
17814;SDS011;9031;50.974;11.330;2023-02-28T05:04:31;5.17;;;4.67;;
17814;SDS011;9031;50.974;11.330;2023-02-28T05:06:59;4.80;;;4.40;;
17814;SDS011;9031;50.974;11.330;2023-02-28T05:09:25;5.03;;;4.60;;
17814;SDS011;9031;50.974;11.330;2023-02-28T05:11:50;4.40;;;4.07;;
17814;SDS011;9031;50.974;11.330;2023-02-28T05:14:16;4.90;;;4.50;;
17814;SDS011;9031;50.974;11.330;2023-02-28T05:16:42;5.17;;;4.60;;
17814;SDS011;9031;50.974;11.330;2023-02-28T05:19:07;5.53;;;5.03;;
17814;SDS011;9031;50.974;11.330;2023-02-28T05:21:36;5.13;;;4.67;;
17814;SDS011;9031;50.974;11.330;2023-02-28T05:24:05;6.40;;;3.97;;
17814;SDS011;9031;50.974;11.330;2023-02-28T05:26:36;4.93;;;4.57;;
17814;SDS011;9031;50.974;11.330;2023-02-28T05:29:03;5.43;;;4.23;;
17814;SDS011;9031;50.974;11.330;2023-02-28T05:31:29;5.77;;;5.23;;
17814;SDS011;9031;50.974;11.330;2023-02-28T05:33:55;4.83;;;4.33;;
17814;SDS011;9031;50.974;11.330;2023-02-28T05:36:20;5.40;;;4.10;;
17814;SDS011;9031;50.974;11.330;2023-02-28T05:38:47;8.53;;;7.00;;
17814;SDS011;9031;50.974;11.330;2023-02-28T05:41:13;6.00;;;5.40;;
17814;SDS011;9031;50.974;11.330;2023-02-28T05:43:39;5.67;;;5.17;;
17814;SDS011;9031;50.974;11.330;2023-02-28T05:46:05;5.17;;;4.33;;
17814;SDS011;9031;50.974;11.330;2023-02-28T05:48:33;6.20;;;5.57;;
17814;SDS011;9031;50.974;11.330;2023-02-28T05:50:59;5.67;;;4.27;;
17814;SDS011;9031;50.974;11.330;2023-02-28T05:53:25;5.87;;;5.30;;
17814;SDS011;9031;50.974;11.330;2023-02-28T05:55:51;5.87;;;5.27;;
17814;SDS011;9031;50.974;11.330;2023-02-28T05:58:17;6.50;;;5.07;;
17814;SDS011;9031;50.974;11.330;2023-02-28T06:00:42;5.97;;;4.73;;
17814;SDS011;9031;50.974;11.330;2023-02-28T06:03:08;5.50;;;5.00;;
17814;SDS011;9031;50.974;11.330;2023-02-28T06:05:33;6.30;;;5.00;;
17814;SDS011;9031;50.974;11.330;2023-02-28T06:07:59;5.40;;;4.73;;
17814;SDS011;9031;50.974;11.330;2023-02-28T06:10:24;5.37;;;4.87;;
17814;SDS011;9031;50.974;11.330;2023-02-28T06:12:50;6.93;;;5.10;;
17814;SDS011;9031;50.974;11.330;2023-02-28T06:15:15;5.70;;;5.20;;
17814;SDS011;9031;50.974;11.330;2023-02-28T06:17:42;5.70;;;4.40;;
17814;SDS011;9031;50.974;11.330;2023-02-28T06:20:08;5.90;;;5.30;;
17814;SDS011;9031;50.974;11.330;2023-02-28T06:22:35;5.40;;;4.90;;
17814;SDS011;9031;50.974;11.330;2023-02-28T06:25:02;5.50;;;5.03;;
17814;SDS011;9031;50.974;11.330;2023-02-28T06:27:28;5.17;;;4.73;;
17814;SDS011;9031;50.974;11.330;2023-02-28T06:29:55;6.10;;;5.17;;
17814;SDS011;9031;50.974;11.330;2023-02-28T06:32:21;5.83;;;4.27;;
17814;SDS011;9031;50.974;11.330;2023-02-28T06:34:47;7.27;;;4.90;;
17814;SDS011;9031;50.974;11.330;2023-02-28T06:37:13;5.60;;;5.07;;
17814;SDS011;9031;50.974;11.330;2023-02-28T06:39:38;4.70;;;4.30;;
17814;SDS011;9031;50.974;11.330;2023-02-28T06:42:04;5.13;;;4.60;;
17814;SDS011;9031;50.974;11.330;2023-02-28T06:44:30;5.60;;;5.10;;
17814;SDS011;9031;50.974;11.330;2023-02-28T06:47:00;5.33;;;4.93;;
17814;SDS011;9031;50.974;11.330;2023-02-28T06:49:28;4.90;;;4.43;;
17814;SDS011;9031;50.974;11.330;2023-02-28T06:51:54;7.63;;;5.43;;
17814;SDS011;9031;50.974;11.330;2023-02-28T06:54:19;4.63;;;4.23;;
17814;SDS011;9031;50.974;11.330;2023-02-28T06:56:45;5.13;;;4.67;;
17814;SDS011;9031;50.974;11.330;2023-02-28T06:59:11;5.07;;;4.53;;
17814;SDS011;9031;50.974;11.330;2023-02-28T07:01:37;5.40;;;4.83;;
17814;SDS011;9031;50.974;11.330;2023-02-28T07:04:03;7.40;;;5.30;;
17814;SDS011;9031;50.974;11.330;2023-02-28T07:06:30;5.10;;;4.60;;
17814;SDS011;9031;50.974;11.330;2023-02-28T07:08:56;5.53;;;5.03;;
17814;SDS011;9031;50.974;11.330;2023-02-28T07:11:22;6.97;;;5.03;;
17814;SDS011;9031;50.974;11.330;2023-02-28T07:13:50;6.20;;;5.53;;
17814;SDS011;9031;50.974;11.330;2023-02-28T07:16:17;5.33;;;4.83;;
17814;SDS011;9031;50.974;11.330;2023-02-28T07:18:43;6.27;;;5.27;;
17814;SDS011;9031;50.974;11.330;2023-02-28T07:21:09;6.07;;;5.13;;
17814;SDS011;9031;50.974;11.330;2023-02-28T07:23:35;7.83;;;5.37;;
17814;SDS011;9031;50.974;11.330;2023-02-28T07:26:03;5.97;;;5.47;;
17814;SDS011;9031;50.974;11.330;2023-02-28T07:28:29;6.13;;;5.43;;
17814;SDS011;9031;50.974;11.330;2023-02-28T07:30:55;8.37;;;5.13;;
17814;SDS011;9031;50.974;11.330;2023-02-28T07:33:21;5.90;;;5.30;;
17814;SDS011;9031;50.974;11.330;2023-02-28T07:35:46;5.63;;;4.93;;
17814;SDS011;9031;50.974;11.330;2023-02-28T07:38:11;6.23;;;4.40;;
17814;SDS011;9031;50.974;11.330;2023-02-28T07:40:38;4.90;;;4.50;;
17814;SDS011;9031;50.974;11.330;2023-02-28T07:43:04;5.00;;;4.50;;
17814;SDS011;9031;50.974;11.330;2023-02-28T07:45:30;5.30;;;4.80;;
17814;SDS011;9031;50.974;11.330;2023-02-28T07:47:57;5.13;;;4.40;;
17814;SDS011;9031;50.974;11.330;2023-02-28T07:50:23;5.70;;;4.53;;
17814;SDS011;9031;50.974;11.330;2023-02-28T07:52:48;6.07;;;4.80;;
17814;SDS011;9031;50.974;11.330;2023-02-28T07:55:14;6.60;;;4.57;;
17814;SDS011;9031;50.974;11.330;2023-02-28T07:57:41;5.07;;;4.13;;
17814;SDS011;9031;50.974;11.330;2023-02-28T08:00:08;5.07;;;4.33;;
17814;SDS011;9031;50.974;11.330;2023-02-28T08:02:35;6.60;;;5.00;;
17814;SDS011;9031;50.974;11.330;2023-02-28T08:05:00;5.07;;;4.53;;
17814;SDS011;9031;50.974;11.330;2023-02-28T08:07:26;4.90;;;4.40;;
17814;SDS011;9031;50.974;11.330;2023-02-28T08:09:52;5.67;;;4.63;;
17814;SDS011;9031;50.974;11.330;2023-02-28T08:12:17;4.70;;;4.27;;
17814;SDS011;9031;50.974;11.330;2023-02-28T08:14:43;6.47;;;4.40;;
17814;SDS011;9031;50.974;11.330;2023-02-28T08:17:09;5.37;;;4.83;;
17814;SDS011;9031;50.974;11.330;2023-02-28T08:19:35;5.50;;;4.80;;
17814;SDS011;9031;50.974;11.330;2023-02-28T08:22:00;6.40;;;4.73;;
17814;SDS011;9031;50.974;11.330;2023-02-28T08:24:26;5.60;;;4.20;;
17814;SDS011;9031;50.974;11.330;2023-02-28T08:26:51;6.13;;;4.33;;
17814;SDS011;9031;50.974;11.330;2023-02-28T08:29:17;5.30;;;4.47;;
17814;SDS011;9031;50.974;11.330;2023-02-28T08:31:42;4.00;;;3.70;;
17814;SDS011;9031;50.974;11.330;2023-02-28T08:34:09;5.03;;;4.53;;
17814;SDS011;9031;50.974;11.330;2023-02-28T08:36:36;5.93;;;4.40;;
17814;SDS011;9031;50.974;11.330;2023-02-28T08:39:02;5.17;;;4.43;;
17814;SDS011;9031;50.974;11.330;2023-02-28T08:41:28;4.60;;;4.10;;
17814;SDS011;9031;50.974;11.330;2023-02-28T08:43:54;5.20;;;4.20;;
17814;SDS011;9031;50.974;11.330;2023-02-28T08:46:19;6.00;;;4.63;;
17814;SDS011;9031;50.974;11.330;2023-02-28T08:48:45;6.43;;;4.70;;
17814;SDS011;9031;50.974;11.330;2023-02-28T08:51:12;5.17;;;4.63;;
17814;SDS011;9031;50.974;11.330;2023-02-28T08:53:41;6.17;;;4.50;;
17814;SDS011;9031;50.974;11.330;2023-02-28T08:56:07;4.87;;;4.47;;
17814;SDS011;9031;50.974;11.330;2023-02-28T08:58:35;5.50;;;4.77;;
17814;SDS011;9031;50.974;11.330;2023-02-28T09:01:06;7.57;;;4.20;;
17814;SDS011;9031;50.974;11.330;2023-02-28T09:03:37;5.93;;;4.00;;
17814;SDS011;9031;50.974;11.330;2023-02-28T09:06:02;5.33;;;4.00;;
17814;SDS011;9031;50.974;11.330;2023-02-28T09:08:29;6.10;;;4.30;;
17814;SDS011;9031;50.974;11.330;2023-02-28T09:10:56;7.70;;;4.27;;
17814;SDS011;9031;50.974;11.330;2023-02-28T09:13:23;4.47;;;4.07;;
17814;SDS011;9031;50.974;11.330;2023-02-28T09:15:49;6.53;;;4.37;;
17814;SDS011;9031;50.974;11.330;2023-02-28T09:18:14;4.93;;;4.43;;
17814;SDS011;9031;50.974;11.330;2023-02-28T09:20:40;6.33;;;4.40;;
17814;SDS011;9031;50.974;11.330;2023-02-28T09:23:07;5.63;;;3.73;;
17814;SDS011;9031;50.974;11.330;2023-02-28T09:25:34;5.83;;;3.77;;
17814;SDS011;9031;50.974;11.330;2023-02-28T09:28:00;5.17;;;4.50;;
17814;SDS011;9031;50.974;11.330;2023-02-28T09:30:26;6.40;;;4.50;;
17814;SDS011;9031;50.974;11.330;2023-02-28T09:32:51;5.30;;;3.97;;
17814;SDS011;9031;50.974;11.330;2023-02-28T09:35:18;4.70;;;4.20;;
17814;SDS011;9031;50.974;11.330;2023-02-28T09:37:45;4.47;;;3.90;;
17814;SDS011;9031;50.974;11.330;2023-02-28T09:40:12;6.03;;;4.37;;
17814;SDS011;9031;50.974;11.330;2023-02-28T09:42:39;5.13;;;4.30;;
17814;SDS011;9031;50.974;11.330;2023-02-28T09:45:06;4.63;;;4.23;;
17814;SDS011;9031;50.974;11.330;2023-02-28T09:47:45;4.73;;;3.63;;
17814;SDS011;9031;50.974;11.330;2023-02-28T09:52:51;4.80;;;4.13;;
17814;SDS011;9031;50.974;11.330;2023-02-28T09:58:04;4.20;;;3.80;;
17814;SDS011;9031;50.974;11.330;2023-02-28T10:00:39;3.80;;;3.23;;
17814;SDS011;9031;50.974;11.330;2023-02-28T10:06:12;3.70;;;3.40;;
17814;SDS011;9031;50.974;11.330;2023-02-28T10:11:34;4.40;;;3.60;;
17814;SDS011;9031;50.974;11.330;2023-02-28T10:16:54;4.37;;;3.60;;
17814;SDS011;9031;50.974;11.330;2023-02-28T10:22:22;3.73;;;3.43;;
17814;SDS011;9031;50.974;11.330;2023-02-28T10:24:53;4.03;;;3.67;;
17814;SDS011;9031;50.974;11.330;2023-02-28T10:27:26;6.43;;;3.40;;
17814;SDS011;9031;50.974;11.330;2023-02-28T10:29:58;5.43;;;3.93;;
17814;SDS011;9031;50.974;11.330;2023-02-28T10:37:31;4.00;;;3.60;;
17814;SDS011;9031;50.974;11.330;2023-02-28T10:39:57;4.33;;;3.20;;
17814;SDS011;9031;50.974;11.330;2023-02-28T10:42:26;3.43;;;3.13;;
17814;SDS011;9031;50.974;11.330;2023-02-28T10:47:55;4.00;;;3.00;;
17814;SDS011;9031;50.974;11.330;2023-02-28T10:50:50;4.20;;;2.80;;
17814;SDS011;9031;50.974;11.330;2023-02-28T10:56:04;5.10;;;2.90;;
17814;SDS011;9031;50.974;11.330;2023-02-28T10:58:31;3.30;;;2.97;;
17814;SDS011;9031;50.974;11.330;2023-02-28T11:00:57;3.63;;;3.33;;
17814;SDS011;9031;50.974;11.330;2023-02-28T11:05:57;4.73;;;3.17;;
17814;SDS011;9031;50.974;11.330;2023-02-28T11:08:23;5.07;;;3.30;;
17814;SDS011;9031;50.974;11.330;2023-02-28T11:10:59;3.23;;;2.90;;
17814;SDS011;9031;50.974;11.330;2023-02-28T11:13:35;4.70;;;3.20;;
17814;SDS011;9031;50.974;11.330;2023-02-28T11:16:04;3.23;;;2.43;;
17814;SDS011;9031;50.974;11.330;2023-02-28T11:18:42;3.43;;;2.60;;
17814;SDS011;9031;50.974;11.330;2023-02-28T11:21:16;3.70;;;2.83;;
17814;SDS011;9031;50.974;11.330;2023-02-28T11:23:50;4.27;;;2.83;;
17814;SDS011;9031;50.974;11.330;2023-02-28T11:26:36;4.97;;;2.77;;
17814;SDS011;9031;50.974;11.330;2023-02-28T11:29:20;3.90;;;2.83;;
17814;SDS011;9031;50.974;11.330;2023-02-28T11:34:28;3.67;;;2.67;;
17814;SDS011;9031;50.974;11.330;2023-02-28T11:36:54;4.33;;;2.63;;
17814;SDS011;9031;50.974;11.330;2023-02-28T11:39:21;3.47;;;3.00;;
17814;SDS011;9031;50.974;11.330;2023-02-28T11:54:59;4.10;;;3.17;;
17814;SDS011;9031;50.974;11.330;2023-02-28T12:00:08;3.87;;;2.90;;
17814;SDS011;9031;50.974;11.330;2023-02-28T12:05:38;4.17;;;3.07;;
17814;SDS011;9031;50.974;11.330;2023-02-28T12:13:47;4.17;;;3.27;;
17814;SDS011;9031;50.974;11.330;2023-02-28T12:16:43;5.23;;;3.37;;
17814;SDS011;9031;50.974;11.330;2023-02-28T12:19:19;4.27;;;3.67;;
17814;SDS011;9031;50.974;11.330;2023-02-28T12:22:06;3.37;;;3.07;;
17814;SDS011;9031;50.974;11.330;2023-02-28T12:27:43;4.10;;;3.20;;
17814;SDS011;9031;50.974;11.330;2023-02-28T12:30:19;4.90;;;3.20;;
17814;SDS011;9031;50.974;11.330;2023-02-28T12:33:03;5.10;;;3.00;;
17814;SDS011;9031;50.974;11.330;2023-02-28T12:35:38;5.57;;;3.37;;
17814;SDS011;9031;50.974;11.330;2023-02-28T12:38:12;5.13;;;4.10;;
17814;SDS011;9031;50.974;11.330;2023-02-28T12:40:48;4.40;;;3.90;;
17814;SDS011;9031;50.974;11.330;2023-02-28T12:43:19;4.97;;;3.60;;
17814;SDS011;9031;50.974;11.330;2023-02-28T12:45:55;4.87;;;4.00;;
17814;SDS011;9031;50.974;11.330;2023-02-28T12:48:26;4.77;;;3.70;;
17814;SDS011;9031;50.974;11.330;2023-02-28T12:50:55;5.40;;;3.87;;
17814;SDS011;9031;50.974;11.330;2023-02-28T12:56:09;4.67;;;3.93;;
17814;SDS011;9031;50.974;11.330;2023-02-28T12:58:58;5.67;;;4.37;;
17814;SDS011;9031;50.974;11.330;2023-02-28T13:01:49;4.27;;;3.50;;
17814;SDS011;9031;50.974;11.330;2023-02-28T13:04:47;5.83;;;4.00;;
17814;SDS011;9031;50.974;11.330;2023-02-28T13:10:15;4.80;;;4.00;;
17814;SDS011;9031;50.974;11.330;2023-02-28T13:12:48;5.17;;;3.90;;
17814;SDS011;9031;50.974;11.330;2023-02-28T13:17:54;6.23;;;4.20;;
17814;SDS011;9031;50.974;11.330;2023-02-28T13:20:24;7.03;;;4.43;;
17814;SDS011;9031;50.974;11.330;2023-02-28T13:23:00;5.00;;;4.40;;
17814;SDS011;9031;50.974;11.330;2023-02-28T13:27:59;5.57;;;4.57;;
17814;SDS011;9031;50.974;11.330;2023-02-28T13:36:09;6.57;;;4.70;;
17814;SDS011;9031;50.974;11.330;2023-02-28T13:38:39;5.07;;;4.57;;
17814;SDS011;9031;50.974;11.330;2023-02-28T13:51:50;10.27;;;4.93;;
17814;SDS011;9031;50.974;11.330;2023-02-28T14:06:07;6.07;;;5.07;;
17814;SDS011;9031;50.974;11.330;2023-02-28T14:09:01;6.10;;;4.87;;
17814;SDS011;9031;50.974;11.330;2023-02-28T14:11:48;7.73;;;4.67;;
17814;SDS011;9031;50.974;11.330;2023-02-28T14:17:02;6.10;;;4.93;;
17814;SDS011;9031;50.974;11.330;2023-02-28T14:19:29;6.30;;;4.77;;
17814;SDS011;9031;50.974;11.330;2023-02-28T14:34:50;8.53;;;5.10;;
17814;SDS011;9031;50.974;11.330;2023-02-28T14:37:32;9.97;;;5.13;;
17814;SDS011;9031;50.974;11.330;2023-02-28T14:40:02;7.87;;;5.13;;
17814;SDS011;9031;50.974;11.330;2023-02-28T14:44:59;9.80;;;5.17;;
17814;SDS011;9031;50.974;11.330;2023-02-28T14:47:30;4.53;;;4.10;;
17814;SDS011;9031;50.974;11.330;2023-02-28T14:49:58;5.60;;;4.80;;
17814;SDS011;9031;50.974;11.330;2023-02-28T14:52:29;7.90;;;5.27;;
17814;SDS011;9031;50.974;11.330;2023-02-28T14:55:06;5.90;;;5.13;;
17814;SDS011;9031;50.974;11.330;2023-02-28T14:57:41;7.00;;;4.77;;
17814;SDS011;9031;50.974;11.330;2023-02-28T15:00:18;5.20;;;4.67;;
17814;SDS011;9031;50.974;11.330;2023-02-28T15:02:47;7.50;;;4.90;;
17814;SDS011;9031;50.974;11.330;2023-02-28T15:07:41;6.43;;;4.87;;
17814;SDS011;9031;50.974;11.330;2023-02-28T15:12:36;7.53;;;5.10;;
17814;SDS011;9031;50.974;11.330;2023-02-28T15:15:04;6.33;;;5.13;;
17814;SDS011;9031;50.974;11.330;2023-02-28T15:17:31;9.13;;;4.90;;
17814;SDS011;9031;50.974;11.330;2023-02-28T15:19:57;7.23;;;5.47;;
17814;SDS011;9031;50.974;11.330;2023-02-28T15:22:35;6.00;;;4.73;;
17814;SDS011;9031;50.974;11.330;2023-02-28T15:25:02;6.17;;;4.93;;
17814;SDS011;9031;50.974;11.330;2023-02-28T15:27:31;8.27;;;4.77;;
17814;SDS011;9031;50.974;11.330;2023-02-28T15:29:59;9.17;;;5.90;;
17814;SDS011;9031;50.974;11.330;2023-02-28T15:32:31;7.60;;;5.77;;
17814;SDS011;9031;50.974;11.330;2023-02-28T15:34:59;6.93;;;5.10;;
17814;SDS011;9031;50.974;11.330;2023-02-28T15:37:46;6.10;;;4.93;;
17814;SDS011;9031;50.974;11.330;2023-02-28T15:40:22;7.37;;;5.30;;
17814;SDS011;9031;50.974;11.330;2023-02-28T15:43:06;6.77;;;5.20;;
17814;SDS011;9031;50.974;11.330;2023-02-28T15:45:51;6.63;;;5.13;;
17814;SDS011;9031;50.974;11.330;2023-02-28T15:50:56;5.57;;;4.73;;
17814;SDS011;9031;50.974;11.330;2023-02-28T15:53:31;6.97;;;5.27;;
17814;SDS011;9031;50.974;11.330;2023-02-28T15:56:02;7.27;;;5.00;;
17814;SDS011;9031;50.974;11.330;2023-02-28T15:58:29;10.20;;;5.37;;
17814;SDS011;9031;50.974;11.330;2023-02-28T16:01:16;9.60;;;5.43;;
17814;SDS011;9031;50.974;11.330;2023-02-28T16:03:53;6.33;;;5.10;;
17814;SDS011;9031;50.974;11.330;2023-02-28T16:06:23;6.87;;;5.33;;
17814;SDS011;9031;50.974;11.330;2023-02-28T16:08:50;6.47;;;5.53;;
17814;SDS011;9031;50.974;11.330;2023-02-28T16:11:16;7.93;;;5.90;;
17814;SDS011;9031;50.974;11.330;2023-02-28T16:13:42;6.87;;;6.17;;
17814;SDS011;9031;50.974;11.330;2023-02-28T16:16:07;8.83;;;6.13;;
17814;SDS011;9031;50.974;11.330;2023-02-28T16:18:33;7.63;;;5.50;;
17814;SDS011;9031;50.974;11.330;2023-02-28T16:20:59;8.07;;;6.13;;
17814;SDS011;9031;50.974;11.330;2023-02-28T16:23:25;8.93;;;6.70;;
17814;SDS011;9031;50.974;11.330;2023-02-28T16:25:50;8.60;;;6.37;;
17814;SDS011;9031;50.974;11.330;2023-02-28T16:28:20;8.47;;;6.37;;
17814;SDS011;9031;50.974;11.330;2023-02-28T16:30:54;8.13;;;6.27;;
17814;SDS011;9031;50.974;11.330;2023-02-28T16:33:20;9.07;;;6.60;;
17814;SDS011;9031;50.974;11.330;2023-02-28T16:35:45;11.17;;;7.00;;
17814;SDS011;9031;50.974;11.330;2023-02-28T16:38:11;7.87;;;6.37;;
17814;SDS011;9031;50.974;11.330;2023-02-28T16:40:36;8.07;;;6.33;;
17814;SDS011;9031;50.974;11.330;2023-02-28T16:43:06;7.07;;;6.37;;
17814;SDS011;9031;50.974;11.330;2023-02-28T16:45:36;8.23;;;7.03;;
17814;SDS011;9031;50.974;11.330;2023-02-28T16:48:02;9.07;;;6.93;;
17814;SDS011;9031;50.974;11.330;2023-02-28T16:50:29;8.83;;;7.07;;
17814;SDS011;9031;50.974;11.330;2023-02-28T16:52:57;9.97;;;6.77;;
17814;SDS011;9031;50.974;11.330;2023-02-28T16:55:23;9.20;;;7.10;;
17814;SDS011;9031;50.974;11.330;2023-02-28T16:57:51;9.87;;;6.97;;
17814;SDS011;9031;50.974;11.330;2023-02-28T17:00:27;8.67;;;6.87;;
17814;SDS011;9031;50.974;11.330;2023-02-28T17:02:55;10.43;;;8.07;;
17814;SDS011;9031;50.974;11.330;2023-02-28T17:05:21;12.07;;;7.97;;
17814;SDS011;9031;50.974;11.330;2023-02-28T17:07:47;9.93;;;7.83;;
17814;SDS011;9031;50.974;11.330;2023-02-28T17:10:21;10.53;;;7.63;;
17814;SDS011;9031;50.974;11.330;2023-02-28T17:12:48;11.23;;;7.40;;
17814;SDS011;9031;50.974;11.330;2023-02-28T17:15:14;11.37;;;8.03;;
17814;SDS011;9031;50.974;11.330;2023-02-28T17:17:41;10.03;;;7.60;;
17814;SDS011;9031;50.974;11.330;2023-02-28T17:20:18;11.50;;;8.63;;
17814;SDS011;9031;50.974;11.330;2023-02-28T17:22:47;11.73;;;7.20;;
17814;SDS011;9031;50.974;11.330;2023-02-28T17:25:13;12.03;;;7.93;;
17814;SDS011;9031;50.974;11.330;2023-02-28T17:27:39;9.40;;;7.53;;
17814;SDS011;9031;50.974;11.330;2023-02-28T17:30:24;10.83;;;7.43;;
17814;SDS011;9031;50.974;11.330;2023-02-28T17:32:55;14.37;;;8.63;;